7Y2 weather

Thompsonville Airport
Thompsonville, Michigan, United States

Public forecast

Using degrees Fahrenheit for public forecast. Weather courtesy of forecast.io.

METAR (pilot weather report)

Closest report is Frankfort Dow Memorial Field, 11.6 nm (21.6 km) NW. Retrieved 2019/09/19 11:38 UTC (0 seconds ago):

KFKS 191138Z AUTO 12003KT 10SM CLR 20/11 A3010 RMK AO2 T02000110

TAF (pilot weather forecast)

Closest forecast is Manistee Co Blacker Airport, 18.7 nm (34.7 km) SW. Retrieved 2019/09/19 06:33 UTC (5 hours ago):

TAF KMBL 190530Z 1906/2006 16008KT P6SM BKN200 WS020/20030KT FM190800 16009KT P6SM SCT200 WS015/21030KT FM191100 16007KT P6SM SCT200 WS015/23030KT FM191400 20008KT P6SM FEW200 FM200000 VRB03KT P6SM SCT150 FM200500 VRB03KT P6SM BKN120